Lula, MS (38644)

12:17 AM CDT on August 26, 2016 (GMT -0500)
Fletcher | | Change Station

Elev 174 ft 34.30 °N, 90.51 °W | Updated 42 minutes ago

Scattered Clouds
Scattered Clouds
77 °F
Feels Like 77 °F
N
0
Wind Variable Wind from North

Today
High -- | Low -- °F
--% Chance of Precip.
Yesterday
High -- | Low -- °F
Precip. -- in
Pressure 30.09 in
Visibility 10.0 miles
Clouds Scattered Clouds 5000 ft
Scattered Clouds 7000 ft
Dew Point 77 °F
Humidity 100%
Rainfall 0.42 in
Snow Depth Not available.
6:31 AM 7:35 PM
Last Quarter, 38% visible
METAR KCKM 260435Z AUTO 00000KT 10SM SCT050 SCT070 25/25 A3009 RMK A01
Pressure 30.09 in
Visibility 10.0 miles
Clouds Scattered Clouds 5000 ft
Scattered Clouds 7000 ft
Dew Point 77 °F
Humidity 100%
Rainfall 0.42 in
Snow Depth Not available.
6:31 AM 7:35 PM
Last Quarter, 38% visible
METAR KCKM 260435Z AUTO 00000KT 10SM SCT050 SCT070 25/25 A3009 RMK A01
A tropical disturbance pushing toward the Bahamas, is expected to develop into a tropical depression or storm, and will likely target Florida and the Gulf Coast this weekend into next week.

Right now, the disturbance remains a broad area of low pressure pushing through the Dominican Republic and Haiti, headed toward the southeast Bahamas. Rainfall totals over 3 inches (with locally higher amounts) are expected in HispaƱiola, particularly over elevated terrain.

10-Day Weather Forecast

Almanac

Astronomy

Aug. 26, 2016 Rise Set
Actual Time
Civil Twilight
Nautical Twilight
Astronomical Twilight
Moon
Length of Visible Light
Length of Day
Tomorrow will be .
, % of the Moon is Illuminated

Today's Extremes

State Highs State Lows

Community

WunderPhotos

Upload Photos

1,935,057 photos uploaded!

WunderBlog® & News

Nearby

Air Quality

  Air Quality AQ Index Pollutant
Not available.

Snow Depth

Station Depth Elevation

Earthquake Activity

City Distance Mag. Time & Date
Minimum magnitude displayed is 2.5.

Coastal Water Temperatures

Place Temperature

Stations

Nearby Weather Stations

Station Location Temp. Windchill Dew Point Humidity Wind Precip. Elev Updated Type
                   

Watches & Warnings

There are currently no watches in effect.